createdAt,value
2018-05-13T00:01:04.627Z,0.00
2018-05-13T00:02:04.564Z,0.00
2018-05-13T00:03:56.295Z,0.00
2018-05-13T00:04:56.237Z,0.00
2018-05-13T00:06:48.003Z,0.00
2018-05-13T00:07:47.955Z,0.00
2018-05-13T00:09:39.688Z,0.00
2018-05-13T00:10:39.621Z,0.00
2018-05-13T00:12:31.372Z,0.00
2018-05-13T00:13:31.303Z,0.00
2018-05-13T00:15:23.076Z,0.00
2018-05-13T00:16:22.999Z,0.00
2018-05-13T00:18:14.755Z,0.00
2018-05-13T00:19:14.689Z,0.00
2018-05-13T00:21:06.663Z,0.00
2018-05-13T00:22:06.597Z,0.00
2018-05-13T00:23:58.349Z,0.00
2018-05-13T00:24:58.332Z,0.00
2018-05-13T00:26:50.076Z,0.00
2018-05-13T00:27:49.994Z,0.00
2018-05-13T00:29:41.750Z,0.00
2018-05-13T00:30:41.682Z,0.00
2018-05-13T00:32:33.432Z,0.00
2018-05-13T00:33:33.371Z,0.00
2018-05-13T00:35:25.141Z,0.00
2018-05-13T00:36:25.065Z,0.00
2018-05-13T00:38:16.828Z,0.00
2018-05-13T00:39:16.763Z,0.00
2018-05-13T00:41:08.530Z,0.00
2018-05-13T00:42:08.452Z,0.00
2018-05-13T00:44:00.209Z,0.00
2018-05-13T00:45:00.150Z,0.00
2018-05-13T00:46:51.905Z,0.00
2018-05-13T00:47:51.838Z,0.00
2018-05-13T00:49:43.594Z,0.00
2018-05-13T00:50:43.611Z,0.00
2018-05-13T00:52:35.293Z,0.00
2018-05-13T00:53:35.219Z,0.00
2018-05-13T00:55:26.986Z,0.00
2018-05-13T00:56:26.918Z,0.00
2018-05-13T00:58:18.673Z,0.00
2018-05-13T00:59:18.610Z,0.00
2018-05-13T01:01:10.401Z,0.00
2018-05-13T01:02:10.341Z,0.00
2018-05-13T01:04:02.082Z,0.00
2018-05-13T01:05:02.023Z,0.00
2018-05-13T01:06:53.824Z,0.00
2018-05-13T01:07:53.760Z,0.00
2018-05-13T01:09:45.534Z,0.00
2018-05-13T01:10:45.476Z,0.00
2018-05-13T01:12:37.277Z,0.00
2018-05-13T01:13:37.202Z,0.00
2018-05-13T01:15:28.995Z,0.00
2018-05-13T01:16:28.911Z,0.00
2018-05-13T01:18:20.668Z,0.00
2018-05-13T01:19:20.605Z,0.00
2018-05-13T01:21:12.393Z,0.00
2018-05-13T01:22:12.320Z,0.00
2018-05-13T01:24:04.070Z,0.00
2018-05-13T01:25:04.010Z,0.00
2018-05-13T01:26:55.801Z,0.00
2018-05-13T01:27:55.724Z,0.00
2018-05-13T01:29:47.523Z,0.00
2018-05-13T01:30:47.449Z,0.00
2018-05-13T01:32:39.255Z,0.00
2018-05-13T01:33:39.177Z,0.00
2018-05-13T01:35:30.938Z,0.00
2018-05-13T01:36:30.879Z,0.00
2018-05-13T01:38:22.641Z,0.00
2018-05-13T01:39:22.572Z,0.00
2018-05-13T01:41:14.333Z,0.00
2018-05-13T01:42:14.272Z,0.00
2018-05-13T01:44:06.046Z,0.00
2018-05-13T01:45:05.988Z,0.00
2018-05-13T01:46:57.782Z,0.00
2018-05-13T01:47:57.711Z,0.00
2018-05-13T01:49:49.461Z,0.00
2018-05-13T01:50:49.396Z,0.00
2018-05-13T01:52:41.180Z,0.00
2018-05-13T01:53:41.102Z,0.00
2018-05-13T01:55:32.854Z,0.00
2018-05-13T01:56:32.796Z,0.00
2018-05-13T01:58:24.568Z,0.00
2018-05-13T01:59:24.491Z,0.00
2018-05-13T02:01:16.270Z,0.00
2018-05-13T02:02:16.181Z,0.00
2018-05-13T02:04:07.928Z,0.00
2018-05-13T02:05:07.868Z,0.00
2018-05-13T02:06:59.647Z,0.00
2018-05-13T02:07:59.574Z,0.00
2018-05-13T02:09:51.323Z,0.00
2018-05-13T02:10:51.258Z,0.00
2018-05-13T02:12:43.021Z,0.00
2018-05-13T02:13:42.948Z,0.00
2018-05-13T02:15:34.709Z,0.00
2018-05-13T02:16:34.650Z,0.00
2018-05-13T02:18:26.429Z,0.00
2018-05-13T02:19:26.352Z,0.00
2018-05-13T02:21:18.100Z,0.00
2018-05-13T02:22:18.043Z,0.00
2018-05-13T02:24:09.799Z,0.00
2018-05-13T02:25:09.729Z,0.00
2018-05-13T02:27:01.505Z,0.00
2018-05-13T02:28:01.432Z,0.00
2018-05-13T02:29:53.200Z,0.00
2018-05-13T02:30:53.130Z,0.00
2018-05-13T02:32:44.914Z,0.00
2018-05-13T02:33:44.837Z,0.00
2018-05-13T02:35:36.589Z,0.00
2018-05-13T02:36:36.528Z,0.00
2018-05-13T02:38:28.315Z,4.00
2018-05-13T02:39:28.241Z,4.00
2018-05-13T02:41:20.026Z,0.00
2018-05-13T02:42:19.968Z,4.00
2018-05-13T02:44:11.745Z,0.00
2018-05-13T02:45:11.668Z,4.00
2018-05-13T02:47:03.449Z,4.00
2018-05-13T02:48:03.380Z,4.00
2018-05-13T02:49:55.145Z,4.00
2018-05-13T02:50:55.118Z,4.00
2018-05-13T02:52:46.846Z,8.00
2018-05-13T02:53:46.772Z,8.00
2018-05-13T02:55:38.555Z,12.00
2018-05-13T02:56:38.491Z,16.00
2018-05-13T02:58:30.289Z,16.00
2018-05-13T02:59:30.235Z,20.00
2018-05-13T03:01:22.000Z,24.00
2018-05-13T03:02:21.941Z,28.00
2018-05-13T03:04:13.712Z,32.00
2018-05-13T03:05:13.638Z,36.00
2018-05-13T03:07:05.389Z,44.00
2018-05-13T03:08:05.326Z,48.00
2018-05-13T03:09:57.090Z,56.00
2018-05-13T03:10:57.013Z,60.00
2018-05-13T03:12:48.782Z,72.00
2018-05-13T03:13:48.704Z,76.00
2018-05-13T03:15:40.478Z,88.00
2018-05-13T03:16:40.414Z,96.00
2018-05-13T03:18:32.188Z,108.00
2018-05-13T03:19:32.110Z,112.00
2018-05-13T03:21:23.870Z,132.00
2018-05-13T03:22:23.811Z,136.00
2018-05-13T03:24:15.617Z,152.00
2018-05-13T03:25:15.540Z,164.00
2018-05-13T03:27:07.287Z,184.00
2018-05-13T03:28:07.248Z,192.00
2018-05-13T03:29:58.987Z,216.00
2018-05-13T03:30:58.915Z,228.00
2018-05-13T03:32:50.675Z,252.00
2018-05-13T03:33:50.614Z,268.00
2018-05-13T03:35:42.407Z,292.00
2018-05-13T03:36:42.327Z,308.00
2018-05-13T03:38:34.093Z,336.00
2018-05-13T03:39:34.023Z,352.00
2018-05-13T03:41:25.788Z,380.00
2018-05-13T03:42:25.725Z,400.00
2018-05-13T03:44:17.483Z,428.00
2018-05-13T03:45:17.410Z,448.00
2018-05-13T03:47:09.160Z,480.00
2018-05-13T03:48:09.098Z,496.00
2018-05-13T03:50:00.859Z,532.00
2018-05-13T03:51:00.788Z,548.00
2018-05-13T03:52:52.547Z,584.00
2018-05-13T03:53:52.480Z,600.00
2018-05-13T03:55:44.247Z,640.00
2018-05-13T03:56:44.172Z,660.00
2018-05-13T03:58:35.957Z,700.00
2018-05-13T03:59:35.927Z,720.00
2018-05-13T04:01:27.675Z,756.00
2018-05-13T04:02:27.602Z,780.00
2018-05-13T04:04:19.386Z,820.00
2018-05-13T04:05:19.313Z,844.00
2018-05-13T04:07:11.080Z,884.00
2018-05-13T04:08:11.018Z,904.00
2018-05-13T04:10:02.786Z,948.00
2018-05-13T04:11:02.712Z,968.00
2018-05-13T04:12:54.480Z,1008.00
2018-05-13T04:13:54.412Z,1028.00
2018-05-13T04:15:46.186Z,1064.00
2018-05-13T04:16:46.109Z,1084.00
2018-05-13T04:18:37.875Z,1128.00
2018-05-13T04:19:37.819Z,1152.00
2018-05-13T04:21:29.590Z,1192.00
2018-05-13T04:22:29.511Z,1212.00
2018-05-13T04:24:21.312Z,1256.00
2018-05-13T04:25:21.238Z,1280.00
2018-05-13T04:27:12.997Z,1320.00
2018-05-13T04:28:12.935Z,1348.00
2018-05-13T04:30:04.735Z,1392.00
2018-05-13T04:31:04.661Z,1420.00
2018-05-13T04:32:56.423Z,1456.00
2018-05-13T04:33:56.361Z,1480.00
2018-05-13T04:35:48.141Z,1524.00
2018-05-13T04:36:48.060Z,1548.00
2018-05-13T04:38:39.840Z,1588.00
2018-05-13T04:39:39.761Z,1612.00
2018-05-13T04:41:31.538Z,1652.00
2018-05-13T04:42:31.457Z,1680.00
2018-05-13T04:44:23.224Z,1732.00
2018-05-13T04:45:23.160Z,1764.00
2018-05-13T04:47:14.944Z,1860.00
2018-05-13T04:48:14.868Z,1912.00
2018-05-13T04:50:06.651Z,1988.00
2018-05-13T04:51:06.571Z,2008.00
2018-05-13T04:52:58.337Z,2088.00
2018-05-13T04:53:58.267Z,2172.00
2018-05-13T04:55:50.064Z,2388.00
2018-05-13T04:56:49.989Z,2520.00
2018-05-13T04:58:41.745Z,2800.00
2018-05-13T04:59:41.683Z,2944.00
2018-05-13T05:01:33.460Z,3208.00
2018-05-13T05:02:33.390Z,3356.00
2018-05-13T05:04:25.152Z,3704.00
2018-05-13T05:05:25.092Z,3920.00
2018-05-13T05:07:16.912Z,4304.00
2018-05-13T05:08:16.797Z,4448.00
2018-05-13T05:10:08.583Z,4768.00
2018-05-13T05:11:08.515Z,5204.00
2018-05-13T05:13:00.312Z,5556.00
2018-05-13T05:14:00.242Z,5968.00
2018-05-13T05:15:52.031Z,6148.00
2018-05-13T05:16:51.954Z,6120.00
2018-05-13T05:18:43.731Z,6288.00
2018-05-13T05:19:43.660Z,6256.00
2018-05-13T05:21:35.438Z,6316.00
2018-05-13T05:22:35.380Z,6496.00
2018-05-13T05:24:27.161Z,6460.00
2018-05-13T05:25:27.098Z,6516.00
2018-05-13T05:27:18.889Z,6636.00
2018-05-13T05:28:18.805Z,6612.00
2018-05-13T05:30:10.584Z,6740.00
2018-05-13T05:31:10.525Z,6800.00
2018-05-13T05:33:02.309Z,6956.00
2018-05-13T05:34:02.240Z,6884.00
2018-05-13T05:35:54.032Z,6900.00
2018-05-13T05:36:53.964Z,6884.00
2018-05-13T05:38:45.724Z,6904.00
2018-05-13T05:39:45.664Z,6908.00
2018-05-13T05:41:37.452Z,6972.00
2018-05-13T05:42:37.368Z,7048.00
2018-05-13T05:44:29.158Z,7056.00
2018-05-13T05:45:29.101Z,7100.00
2018-05-13T05:47:20.878Z,7308.00
2018-05-13T05:48:20.902Z,7324.00
2018-05-13T05:50:12.579Z,7396.00
2018-05-13T05:51:12.520Z,7332.00
2018-05-13T05:53:04.312Z,7324.00
2018-05-13T05:54:04.241Z,7396.00
2018-05-13T05:55:55.997Z,7456.00
2018-05-13T05:56:55.949Z,7472.00
2018-05-13T05:58:47.730Z,7692.00
2018-05-13T05:59:47.667Z,7848.00
2018-05-13T06:01:39.468Z,7780.00
2018-05-13T06:02:39.401Z,7848.00
2018-05-13T06:04:31.195Z,7860.00
2018-05-13T06:05:31.146Z,7812.00
2018-05-13T06:07:23.951Z,7956.00
2018-05-13T06:08:23.883Z,7920.00
2018-05-13T06:10:15.683Z,8136.00
2018-05-13T06:11:15.623Z,8196.00
2018-05-13T06:13:07.444Z,8236.00
2018-05-13T06:14:07.351Z,8308.00
2018-05-13T06:15:59.131Z,8376.00
2018-05-13T06:16:59.078Z,8288.00
2018-05-13T06:18:50.875Z,8468.00
2018-05-13T06:19:50.802Z,10000.00
2018-05-13T06:21:42.581Z,9724.00
2018-05-13T06:22:42.518Z,9816.00
2018-05-13T06:24:34.289Z,9648.00
2018-05-13T06:25:34.486Z,9716.00
2018-05-13T06:27:26.030Z,9864.00
2018-05-13T06:28:25.961Z,9904.00
2018-05-13T06:30:17.738Z,10776.00
2018-05-13T06:31:17.689Z,8312.00
2018-05-13T06:33:09.469Z,10416.00
2018-05-13T06:34:09.398Z,11308.00
2018-05-13T06:36:01.181Z,11076.00
2018-05-13T06:37:01.125Z,11540.00
2018-05-13T06:38:52.919Z,11980.00
2018-05-13T06:39:52.872Z,12384.00
2018-05-13T06:41:44.627Z,12800.00
2018-05-13T06:42:44.577Z,13280.00
2018-05-13T06:44:36.379Z,14176.00
2018-05-13T06:45:36.282Z,14368.00
2018-05-13T06:47:28.103Z,14784.00
2018-05-13T06:48:28.009Z,15808.00
2018-05-13T06:50:19.921Z,17216.00
2018-05-13T06:51:19.780Z,17088.00
2018-05-13T06:53:11.533Z,16384.00
2018-05-13T06:54:11.446Z,16192.00
2018-05-13T06:56:03.240Z,17568.00
2018-05-13T06:57:03.182Z,17664.00
2018-05-13T06:58:55.082Z,16384.00
2018-05-13T06:59:54.987Z,16704.00
2018-05-13T07:01:46.772Z,18368.00
2018-05-13T07:02:46.787Z,18432.00
2018-05-13T07:04:38.498Z,17184.00
2018-05-13T07:05:38.435Z,17472.00
2018-05-13T07:07:30.231Z,18912.00
2018-05-13T07:08:30.167Z,19296.00
2018-05-13T07:10:21.966Z,17568.00
2018-05-13T07:11:21.889Z,17632.00
2018-05-13T07:13:13.690Z,20256.00
2018-05-13T07:14:13.624Z,19584.00
2018-05-13T07:16:05.476Z,17760.00
2018-05-13T07:17:05.420Z,16704.00
2018-05-13T07:18:57.246Z,18432.00
2018-05-13T07:19:57.181Z,18784.00
2018-05-13T07:21:48.972Z,20896.00
2018-05-13T07:22:48.915Z,19168.00
2018-05-13T07:24:40.722Z,12328.00
2018-05-13T07:25:40.662Z,18208.00
2018-05-13T07:27:32.462Z,18336.00
2018-05-13T07:28:32.631Z,18144.00
2018-05-13T07:30:24.187Z,18048.00
2018-05-13T07:31:24.126Z,17760.00
2018-05-13T07:33:15.922Z,11380.00
2018-05-13T07:34:15.857Z,11600.00
2018-05-13T07:36:07.660Z,14432.00
2018-05-13T07:37:07.618Z,13940.00
2018-05-13T07:38:59.400Z,19488.00
2018-05-13T07:39:59.335Z,19616.00
2018-05-13T07:41:51.128Z,17440.00
2018-05-13T07:42:51.107Z,16448.00
2018-05-13T07:44:42.875Z,18176.00
2018-05-13T07:45:42.822Z,18464.00
2018-05-13T07:47:34.614Z,16928.00
2018-05-13T07:48:34.546Z,15648.00
2018-05-13T07:50:26.463Z,13696.00
2018-05-13T07:51:26.359Z,14496.00
2018-05-13T07:53:19.369Z,13316.00
2018-05-13T07:54:18.098Z,12256.00
2018-05-13T07:56:09.877Z,23168.00
2018-05-13T07:57:09.825Z,19488.00
2018-05-13T07:59:01.638Z,21216.00
2018-05-13T08:00:01.569Z,0.00
2018-05-13T08:01:53.355Z,14336.00
2018-05-13T08:02:53.306Z,13716.00
2018-05-13T08:04:45.211Z,14912.00
2018-05-13T08:05:45.030Z,9100.00
2018-05-13T08:07:36.824Z,8988.00
2018-05-13T08:08:36.775Z,10220.00
2018-05-13T08:10:28.581Z,11496.00
2018-05-13T08:11:28.520Z,12624.00
2018-05-13T08:13:20.328Z,10632.00
2018-05-13T08:14:20.289Z,11312.00
2018-05-13T08:16:12.121Z,17344.00
2018-05-13T08:17:12.011Z,14048.00
2018-05-13T08:19:03.805Z,15712.00
2018-05-13T08:20:03.757Z,14816.00
2018-05-13T08:21:55.530Z,16576.00
2018-05-13T08:22:55.467Z,15168.00
2018-05-13T08:24:47.336Z,18816.00
2018-05-13T08:25:47.280Z,19520.00
2018-05-13T08:27:39.055Z,16928.00
2018-05-13T08:28:39.002Z,14176.00
2018-05-13T08:30:30.790Z,12588.00
2018-05-13T08:31:30.718Z,10524.00
2018-05-13T08:33:22.494Z,9572.00
2018-05-13T08:34:22.446Z,10504.00
2018-05-13T08:36:14.255Z,9672.00
2018-05-13T08:37:14.189Z,10604.00
2018-05-13T08:39:06.177Z,9572.00
2018-05-13T08:40:06.106Z,9240.00
2018-05-13T08:41:57.931Z,9856.00
2018-05-13T08:42:57.863Z,9828.00
2018-05-13T08:44:49.660Z,9764.00
2018-05-13T08:45:49.587Z,10000.00
2018-05-13T08:47:41.385Z,9576.00
2018-05-13T08:48:41.353Z,9372.00
2018-05-13T08:50:33.260Z,10872.00
2018-05-13T08:51:33.198Z,9192.00
2018-05-13T08:53:25.028Z,11712.00
2018-05-13T08:54:24.999Z,10680.00
2018-05-13T08:56:16.795Z,10896.00
2018-05-13T08:57:16.702Z,9456.00
2018-05-13T08:59:08.489Z,9744.00
2018-05-13T09:00:08.466Z,11020.00
2018-05-13T09:02:00.244Z,8452.00
2018-05-13T09:03:00.180Z,8720.00
2018-05-13T09:04:51.977Z,11340.00
2018-05-13T09:05:51.917Z,11156.00
2018-05-13T09:07:43.715Z,12128.00
2018-05-13T09:08:43.657Z,6676.00
2018-05-13T09:10:35.444Z,27872.00
2018-05-13T09:11:35.385Z,13952.00
2018-05-13T09:13:27.161Z,25984.00
2018-05-13T09:14:27.159Z,31552.00
2018-05-13T09:16:18.916Z,32320.00
2018-05-13T09:17:18.848Z,32800.00
2018-05-13T09:19:10.639Z,11296.00
2018-05-13T09:20:10.588Z,43904.00
2018-05-13T09:22:02.379Z,13744.00
2018-05-13T09:23:02.319Z,17888.00
2018-05-13T09:24:54.143Z,30400.00
2018-05-13T09:25:54.054Z,26976.00
2018-05-13T09:27:45.848Z,23552.00
2018-05-13T09:28:45.789Z,10764.00
2018-05-13T09:30:37.591Z,15808.00
2018-05-13T09:31:37.525Z,18464.00
2018-05-13T09:33:29.301Z,0.00
2018-05-13T09:34:29.254Z,0.00
2018-05-13T09:36:21.069Z,29600.00
2018-05-13T09:37:21.001Z,14760.00
2018-05-13T09:39:12.797Z,9808.00
2018-05-13T09:40:12.743Z,31904.00
2018-05-13T09:42:04.547Z,9036.00
2018-05-13T09:43:04.486Z,8968.00
2018-05-13T09:44:56.250Z,14544.00
2018-05-13T09:45:56.318Z,8596.00
2018-05-13T09:47:47.992Z,8832.00
2018-05-13T09:48:47.926Z,14920.00
2018-05-13T09:50:39.729Z,8312.00
2018-05-13T09:51:39.664Z,25056.00
2018-05-13T09:53:31.445Z,11108.00
2018-05-13T09:54:31.392Z,27200.00
2018-05-13T09:56:23.196Z,35040.00
2018-05-13T09:57:23.131Z,9264.00
2018-05-13T09:59:14.915Z,41088.00
2018-05-13T10:00:14.874Z,41632.00
2018-05-13T10:02:06.663Z,11672.00
2018-05-13T10:03:06.590Z,28128.00
2018-05-13T10:04:58.400Z,22496.00
2018-05-13T10:05:58.332Z,10028.00
2018-05-13T10:07:50.131Z,9560.00
2018-05-13T10:08:50.065Z,10776.00
2018-05-13T10:10:41.896Z,25760.00
2018-05-13T10:11:41.797Z,39872.00
2018-05-13T10:13:33.596Z,16320.00
2018-05-13T10:14:33.530Z,30144.00
2018-05-13T10:16:25.323Z,23744.00
2018-05-13T10:17:25.255Z,18368.00
2018-05-13T10:19:17.039Z,39488.00
2018-05-13T10:20:17.004Z,38848.00
2018-05-13T10:22:08.795Z,30016.00
2018-05-13T10:23:08.729Z,41120.00
2018-05-13T10:25:00.551Z,43040.00
2018-05-13T10:26:00.459Z,44992.00
2018-05-13T10:27:52.277Z,51360.00
2018-05-13T10:28:52.194Z,15584.00
2018-05-13T10:30:44.104Z,39488.00
2018-05-13T10:31:43.969Z,41376.00
2018-05-13T10:33:35.765Z,41504.00
2018-05-13T10:34:35.699Z,43520.00
2018-05-13T10:36:27.656Z,45120.00
2018-05-13T10:37:27.495Z,43424.00
2018-05-13T10:39:19.294Z,42016.00
2018-05-13T10:40:19.230Z,7776.00
2018-05-13T10:42:11.094Z,36992.00
2018-05-13T10:43:11.026Z,46432.00
2018-05-13T10:45:02.809Z,48128.00
2018-05-13T10:46:02.760Z,27968.00
2018-05-13T10:47:54.557Z,55072.00
2018-05-13T10:48:54.497Z,76768.00
2018-05-13T10:50:46.307Z,49024.00
2018-05-13T10:51:46.241Z,51808.00
2018-05-13T10:53:38.056Z,0.00
2018-05-13T10:54:37.988Z,71008.00
2018-05-13T10:56:29.803Z,53408.00
2018-05-13T10:57:29.729Z,39360.00
2018-05-13T10:59:21.532Z,41088.00
2018-05-13T11:00:21.483Z,50112.00
2018-05-13T11:02:13.341Z,52448.00
2018-05-13T11:03:13.277Z,51776.00
2018-05-13T11:05:05.087Z,32320.00
2018-05-13T11:06:05.049Z,30752.00
2018-05-13T11:07:56.914Z,2512.00
2018-05-13T11:08:56.855Z,3592.00
2018-05-13T11:10:48.667Z,3008.00
2018-05-13T11:11:48.619Z,2888.00
2018-05-13T11:13:40.413Z,2416.00
2018-05-13T11:14:40.351Z,2648.00
2018-05-13T11:16:32.132Z,2564.00
2018-05-13T11:17:32.079Z,2616.00
2018-05-13T11:19:23.888Z,2516.00
2018-05-13T11:20:23.813Z,2552.00
2018-05-13T11:22:15.626Z,2500.00
2018-05-13T11:23:15.553Z,2500.00
2018-05-13T11:25:07.343Z,2524.00
2018-05-13T11:26:07.298Z,2320.00
2018-05-13T11:27:59.056Z,2360.00
2018-05-13T11:28:58.995Z,2432.00
2018-05-13T11:30:50.769Z,2428.00
2018-05-13T11:31:50.723Z,2132.00
2018-05-13T11:33:42.537Z,2420.00
2018-05-13T11:34:42.434Z,2392.00
2018-05-13T11:36:34.248Z,2416.00
2018-05-13T11:37:34.190Z,2388.00
2018-05-13T11:39:25.966Z,2348.00
2018-05-13T11:40:25.905Z,2348.00
2018-05-13T11:42:17.934Z,2352.00
2018-05-13T11:43:17.887Z,2416.00
2018-05-13T11:45:09.671Z,2280.00
2018-05-13T11:46:09.605Z,2276.00
2018-05-13T11:48:01.413Z,2096.00
2018-05-13T11:49:01.350Z,2312.00
2018-05-13T11:50:53.122Z,2216.00
2018-05-13T11:51:53.200Z,2284.00
2018-05-13T11:53:45.031Z,2088.00
2018-05-13T11:54:44.851Z,2180.00
2018-05-13T11:56:36.629Z,2100.00
2018-05-13T11:57:36.562Z,2116.00
2018-05-13T11:59:28.475Z,2052.00
2018-05-13T12:00:28.300Z,2144.00
2018-05-13T12:02:20.149Z,2224.00
2018-05-13T12:03:20.060Z,1972.00
2018-05-13T12:05:11.843Z,2052.00
2018-05-13T12:06:11.766Z,2156.00
2018-05-13T12:08:03.617Z,2148.00
2018-05-13T12:09:03.505Z,2192.00
2018-05-13T12:10:55.258Z,2184.00
2018-05-13T12:11:55.202Z,2204.00
2018-05-13T12:13:47.072Z,1980.00
2018-05-13T12:14:46.963Z,1788.00
2018-05-13T12:16:38.839Z,1992.00
2018-05-13T12:17:38.761Z,2032.00
2018-05-13T12:19:30.565Z,2140.00
2018-05-13T12:20:30.492Z,1996.00
2018-05-13T12:22:22.315Z,2004.00
2018-05-13T12:23:22.205Z,2116.00
2018-05-13T12:25:13.992Z,2164.00
2018-05-13T12:26:13.951Z,2116.00
2018-05-13T12:28:05.852Z,2128.00
2018-05-13T12:29:05.791Z,2156.00
2018-05-13T12:30:57.571Z,2144.00
2018-05-13T12:31:57.514Z,2060.00
2018-05-13T12:33:49.294Z,2160.00
2018-05-13T12:34:49.216Z,2088.00
2018-05-13T12:36:40.987Z,2120.00
2018-05-13T12:37:40.927Z,2000.00
2018-05-13T12:39:32.703Z,2196.00
2018-05-13T12:40:32.638Z,2148.00
2018-05-13T12:42:24.433Z,2164.00
2018-05-13T12:43:24.372Z,2096.00
2018-05-13T12:45:16.165Z,1976.00
2018-05-13T12:46:16.092Z,2080.00
2018-05-13T12:48:07.917Z,2088.00
2018-05-13T12:49:07.855Z,1976.00
2018-05-13T12:50:59.650Z,1952.00
2018-05-13T12:51:59.580Z,2136.00
2018-05-13T12:53:51.372Z,2048.00
2018-05-13T12:54:51.302Z,1988.00
2018-05-13T12:56:43.109Z,2068.00
2018-05-13T12:57:43.039Z,2104.00
2018-05-13T12:59:34.821Z,1940.00
2018-05-13T13:00:34.756Z,2060.00
2018-05-13T13:02:26.642Z,2032.00
2018-05-13T13:03:26.488Z,2076.00
2018-05-13T13:05:18.273Z,1896.00
2018-05-13T13:06:18.258Z,2008.00
2018-05-13T13:08:09.992Z,1932.00
2018-05-13T13:09:10.004Z,1920.00
2018-05-13T13:11:01.720Z,2072.00
2018-05-13T13:12:01.661Z,2084.00
2018-05-13T13:13:53.440Z,2052.00
2018-05-13T13:14:53.388Z,1864.00
2018-05-13T13:16:45.191Z,1980.00
2018-05-13T13:17:45.113Z,1984.00
2018-05-13T13:19:36.891Z,1916.00
2018-05-13T13:20:36.818Z,1952.00
2018-05-13T13:22:28.604Z,2036.00
2018-05-13T13:23:28.545Z,2080.00
2018-05-13T13:25:20.356Z,2084.00
2018-05-13T13:26:20.298Z,2048.00
2018-05-13T13:28:12.065Z,1996.00
2018-05-13T13:29:12.013Z,1800.00
2018-05-13T13:31:03.799Z,1916.00
2018-05-13T13:32:03.723Z,1932.00
2018-05-13T13:33:55.496Z,2016.00
2018-05-13T13:34:55.450Z,1880.00
2018-05-13T13:36:47.213Z,1944.00
2018-05-13T13:37:47.139Z,1936.00
2018-05-13T13:39:38.920Z,1968.00
2018-05-13T13:40:38.853Z,1984.00
2018-05-13T13:42:30.665Z,1996.00
2018-05-13T13:43:30.597Z,1984.00
2018-05-13T13:45:22.505Z,2040.00
2018-05-13T13:46:22.318Z,2016.00
2018-05-13T13:48:14.087Z,2016.00
2018-05-13T13:49:14.029Z,2024.00
2018-05-13T13:51:05.804Z,2004.00
2018-05-13T13:52:05.741Z,1996.00
2018-05-13T13:53:57.529Z,1996.00
2018-05-13T13:54:57.468Z,1992.00
2018-05-13T13:56:49.249Z,1884.00
2018-05-13T13:57:49.183Z,1920.00
2018-05-13T13:59:40.969Z,1992.00
2018-05-13T14:00:40.909Z,2012.00
2018-05-13T14:02:32.695Z,1996.00
2018-05-13T14:03:32.620Z,1960.00
2018-05-13T14:05:24.403Z,1948.00
2018-05-13T14:06:24.411Z,1964.00
2018-05-13T14:08:16.149Z,1952.00
2018-05-13T14:09:16.097Z,1988.00
2018-05-13T14:11:07.896Z,1940.00
2018-05-13T14:12:07.826Z,1928.00
2018-05-13T14:13:59.578Z,1972.00
2018-05-13T14:14:59.521Z,1932.00
2018-05-13T14:16:51.301Z,1960.00
2018-05-13T14:17:51.230Z,1936.00
2018-05-13T14:19:43.037Z,1720.00
2018-05-13T14:20:43.091Z,1796.00
2018-05-13T14:22:34.819Z,1892.00
2018-05-13T14:23:34.732Z,1676.00
2018-05-13T14:25:26.530Z,1908.00
2018-05-13T14:26:26.461Z,1908.00
2018-05-13T14:28:18.221Z,1900.00
2018-05-13T14:29:18.238Z,1848.00
2018-05-13T14:31:09.971Z,1880.00
2018-05-13T14:32:09.909Z,1796.00
2018-05-13T14:34:01.669Z,1864.00
2018-05-13T14:35:01.626Z,1764.00
2018-05-13T14:36:53.412Z,1776.00
2018-05-13T14:37:53.353Z,1836.00
2018-05-13T14:39:45.185Z,1832.00
2018-05-13T14:40:45.077Z,1756.00
2018-05-13T14:42:36.866Z,1756.00
2018-05-13T14:43:36.797Z,1660.00
2018-05-13T14:45:28.611Z,1800.00
2018-05-13T14:46:28.513Z,1752.00
2018-05-13T14:48:20.288Z,1656.00
2018-05-13T14:49:20.219Z,1760.00
2018-05-13T14:51:11.996Z,1780.00
2018-05-13T14:52:11.924Z,1636.00
2018-05-13T14:54:03.750Z,1760.00
2018-05-13T14:55:03.655Z,1668.00
2018-05-13T14:56:55.439Z,1628.00
2018-05-13T14:57:55.368Z,1644.00
2018-05-13T14:59:47.148Z,1664.00
2018-05-13T15:00:47.092Z,1624.00
2018-05-13T15:02:38.869Z,1588.00
2018-05-13T15:03:38.799Z,1596.00
2018-05-13T15:05:30.572Z,1680.00
2018-05-13T15:06:30.509Z,1716.00
2018-05-13T15:08:22.324Z,1700.00
2018-05-13T15:09:22.282Z,1700.00
2018-05-13T15:11:14.074Z,1720.00
2018-05-13T15:12:13.971Z,1692.00
2018-05-13T15:14:05.755Z,1600.00
2018-05-13T15:15:05.696Z,1528.00
2018-05-13T15:16:57.471Z,1572.00
2018-05-13T15:17:57.398Z,1616.00
2018-05-13T15:19:49.175Z,1660.00
2018-05-13T15:20:49.110Z,1612.00
2018-05-13T15:22:40.906Z,1524.00
2018-05-13T15:23:40.833Z,1600.00
2018-05-13T15:25:32.618Z,1464.00
2018-05-13T15:26:32.563Z,1604.00
2018-05-13T15:28:24.379Z,1488.00
2018-05-13T15:29:24.307Z,1508.00
2018-05-13T15:31:16.080Z,1576.00
2018-05-13T15:32:16.022Z,1532.00
2018-05-13T15:34:07.797Z,1492.00
2018-05-13T15:35:07.733Z,1516.00
2018-05-13T15:36:59.519Z,1544.00
2018-05-13T15:37:59.444Z,1580.00
2018-05-13T15:39:51.220Z,1564.00
2018-05-13T15:40:51.157Z,1524.00
2018-05-13T15:42:43.049Z,1508.00
2018-05-13T15:43:42.902Z,1540.00
2018-05-13T15:45:34.647Z,1516.00
2018-05-13T15:46:34.590Z,1508.00
2018-05-13T15:48:26.376Z,1496.00
2018-05-13T15:49:26.303Z,1420.00
2018-05-13T15:51:18.093Z,1488.00
2018-05-13T15:52:18.057Z,1480.00
2018-05-13T15:54:09.831Z,1444.00
2018-05-13T15:55:09.763Z,1424.00
2018-05-13T15:57:01.565Z,1444.00
2018-05-13T15:58:01.501Z,1432.00
2018-05-13T15:59:53.367Z,1456.00
2018-05-13T16:00:53.289Z,1452.00
2018-05-13T16:02:45.093Z,1468.00
2018-05-13T16:03:45.025Z,1384.00
2018-05-13T16:05:36.792Z,1452.00
2018-05-13T16:06:36.774Z,1452.00
2018-05-13T16:08:28.516Z,1380.00
2018-05-13T16:09:28.444Z,1420.00
2018-05-13T16:11:20.228Z,1424.00
2018-05-13T16:12:20.263Z,1440.00
2018-05-13T16:14:11.948Z,1416.00
2018-05-13T16:15:11.881Z,1412.00
2018-05-13T16:17:03.643Z,1356.00
2018-05-13T16:18:03.590Z,1360.00
2018-05-13T16:19:55.394Z,1288.00
2018-05-13T16:20:55.306Z,1288.00
2018-05-13T16:22:47.154Z,1268.00
2018-05-13T16:23:47.076Z,1228.00
2018-05-13T16:25:38.819Z,1244.00
2018-05-13T16:26:38.760Z,1244.00
2018-05-13T16:28:30.556Z,1260.00
2018-05-13T16:29:30.460Z,1184.00
2018-05-13T16:31:22.235Z,1304.00
2018-05-13T16:32:22.177Z,1212.00
2018-05-13T16:34:13.989Z,1212.00
2018-05-13T16:35:13.927Z,1256.00
2018-05-13T16:37:05.703Z,1156.00
2018-05-13T16:38:05.639Z,1168.00
2018-05-13T16:39:57.668Z,1244.00
2018-05-13T16:40:57.562Z,1228.00
2018-05-13T16:42:49.327Z,1216.00
2018-05-13T16:43:49.263Z,1148.00
2018-05-13T16:45:41.056Z,1216.00
2018-05-13T16:46:41.010Z,1192.00
2018-05-13T16:48:32.776Z,1180.00
2018-05-13T16:49:32.703Z,1168.00
2018-05-13T16:51:24.478Z,1156.00
2018-05-13T16:52:24.418Z,1140.00
2018-05-13T16:54:16.195Z,1128.00
2018-05-13T16:55:16.113Z,1144.00
2018-05-13T16:57:07.891Z,1080.00
2018-05-13T16:58:07.837Z,1076.00
2018-05-13T16:59:59.618Z,1056.00
2018-05-13T17:00:59.539Z,1096.00
2018-05-13T17:02:51.315Z,1072.00
2018-05-13T17:03:51.256Z,1060.00
2018-05-13T17:05:43.051Z,1060.00
2018-05-13T17:06:42.981Z,1036.00
2018-05-13T17:08:34.764Z,960.00
2018-05-13T17:09:34.695Z,1040.00
2018-05-13T17:11:26.547Z,1056.00
2018-05-13T17:12:26.501Z,1052.00
2018-05-13T17:14:18.265Z,948.00
2018-05-13T17:15:18.200Z,1040.00
2018-05-13T17:17:10.056Z,1020.00
2018-05-13T17:18:09.958Z,980.00
2018-05-13T17:20:01.772Z,984.00
2018-05-13T17:21:01.723Z,984.00
2018-05-13T17:22:53.516Z,920.00
2018-05-13T17:23:53.418Z,920.00
2018-05-13T17:25:45.236Z,948.00
2018-05-13T17:26:45.167Z,904.00
2018-05-13T17:28:37.140Z,888.00
2018-05-13T17:29:37.078Z,904.00
2018-05-13T17:31:28.891Z,884.00